createdAt,value
2018-01-20T00:04:04.634Z,23.07
2018-01-20T00:06:05.829Z,22.50
2018-01-20T00:08:07.867Z,23.57
2018-01-20T00:10:21.390Z,24.40
2018-01-20T00:12:22.435Z,27.03
2018-01-20T00:14:23.605Z,25.83
2018-01-20T00:16:36.319Z,26.97
2018-01-20T00:20:49.565Z,26.23
2018-01-20T00:22:50.599Z,27.50
2018-01-20T00:24:57.952Z,24.40
2018-01-20T00:26:59.193Z,26.70
2018-01-20T00:29:21.663Z,23.27
2018-01-20T00:31:23.296Z,23.03
2018-01-20T00:33:24.994Z,23.77
2018-01-20T00:35:25.958Z,25.17
2018-01-20T00:37:27.000Z,23.97
2018-01-20T00:41:35.164Z,23.03
2018-01-20T00:43:37.802Z,23.47
2018-01-20T00:45:39.057Z,21.67
2018-01-20T00:47:40.159Z,25.63
2018-01-20T00:49:41.135Z,23.80
2018-01-20T00:51:57.146Z,24.30
2018-01-20T00:56:24.744Z,21.40
2018-01-20T01:00:53.853Z,23.43
2018-01-20T01:02:55.234Z,22.30
2018-01-20T01:04:56.498Z,21.47
2018-01-20T01:06:59.036Z,23.90
2018-01-20T01:16:27.534Z,23.37
2018-01-20T01:18:28.827Z,21.27
2018-01-20T01:20:31.372Z,21.93
2018-01-20T01:27:33.900Z,22.13
2018-01-20T01:29:35.073Z,24.10
2018-01-20T01:31:40.204Z,24.37
2018-01-20T01:33:47.406Z,25.60
2018-01-20T01:35:49.236Z,27.60
2018-01-20T01:37:50.382Z,25.30
2018-01-20T01:39:52.219Z,27.00
2018-01-20T01:41:57.559Z,27.83
2018-01-20T01:44:00.417Z,25.07
2018-01-20T01:46:01.556Z,25.87
2018-01-20T01:48:02.584Z,27.37
2018-01-20T01:50:12.512Z,29.67
2018-01-20T01:52:13.567Z,28.30
2018-01-20T01:54:17.283Z,28.60
2018-01-20T01:56:18.607Z,28.67
2018-01-20T01:58:19.668Z,29.37
2018-01-20T02:00:20.770Z,28.07
2018-01-20T02:02:22.426Z,26.47
2018-01-20T02:06:36.333Z,28.27
2018-01-20T02:08:37.368Z,29.13
2018-01-20T02:10:38.384Z,27.70
2018-01-20T02:12:39.383Z,29.60
2018-01-20T02:15:01.587Z,29.93
2018-01-20T02:17:26.830Z,28.03
2018-01-20T02:19:28.568Z,30.13
2018-01-20T02:21:30.015Z,26.70
2018-01-20T02:23:31.860Z,31.03
2018-01-20T02:27:41.477Z,25.77
2018-01-20T02:29:42.521Z,26.97
2018-01-20T02:31:50.554Z,29.80
2018-01-20T02:33:58.621Z,29.00
2018-01-20T02:36:00.369Z,25.57
2018-01-20T02:38:05.974Z,27.90
2018-01-20T02:40:07.652Z,28.47
2018-01-20T02:42:10.428Z,29.90
2018-01-20T02:44:12.223Z,33.03
2018-01-20T02:46:14.411Z,30.70
2018-01-20T02:48:16.365Z,31.57
2018-01-20T02:50:18.287Z,27.93
2018-01-20T02:52:22.300Z,32.43
2018-01-20T02:56:52.253Z,32.43
2018-01-20T02:58:53.222Z,29.37
2018-01-20T03:01:04.864Z,33.23
2018-01-20T03:03:05.834Z,35.00
2018-01-20T03:05:06.848Z,34.10
2018-01-20T03:07:24.196Z,33.30
2018-01-20T03:09:34.174Z,31.63
2018-01-20T03:14:39.640Z,27.67
2018-01-20T03:22:22.545Z,31.60
2018-01-20T03:24:23.561Z,29.87
2018-01-20T03:26:50.907Z,30.90
2018-01-20T03:28:56.340Z,29.70
2018-01-20T03:31:15.191Z,27.57
2018-01-20T03:33:21.035Z,25.07
2018-01-20T03:35:22.049Z,27.80
2018-01-20T03:37:23.361Z,30.50
2018-01-20T03:39:24.480Z,27.67
2018-01-20T03:41:25.495Z,28.53
2018-01-20T03:43:26.576Z,29.47
2018-01-20T03:45:28.724Z,29.70
2018-01-20T03:47:30.307Z,30.17
2018-01-20T03:49:31.412Z,27.80
2018-01-20T03:51:34.194Z,32.03
2018-01-20T03:53:35.273Z,31.03
2018-01-20T03:55:36.252Z,32.33
2018-01-20T03:57:37.351Z,29.00
2018-01-20T03:59:42.847Z,25.20
2018-01-20T04:01:44.895Z,28.83
2018-01-20T04:04:05.608Z,29.07
2018-01-20T04:06:07.852Z,31.20
2018-01-20T04:08:08.933Z,32.50
2018-01-20T04:10:10.572Z,31.70
2018-01-20T04:12:11.735Z,30.90
2018-01-20T04:14:13.044Z,28.40
2018-01-20T04:16:15.446Z,29.17
2018-01-20T04:18:16.498Z,28.70
2018-01-20T04:20:17.533Z,28.57
2018-01-20T04:22:21.417Z,27.83
2018-01-20T04:24:24.535Z,26.67
2018-01-20T04:26:25.660Z,27.47
2018-01-20T04:28:27.111Z,29.60
2018-01-20T04:30:28.409Z,28.37
2018-01-20T04:32:29.535Z,30.13
2018-01-20T04:34:30.640Z,32.97
2018-01-20T04:36:32.858Z,30.77
2018-01-20T04:38:33.961Z,31.70
2018-01-20T04:40:38.087Z,30.97
2018-01-20T04:42:39.073Z,32.60
2018-01-20T04:44:40.283Z,32.43
2018-01-20T04:46:42.582Z,32.30
2018-01-20T04:48:43.610Z,30.60
2018-01-20T04:50:46.460Z,30.00
2018-01-20T04:52:47.887Z,23.87
2018-01-20T04:54:48.927Z,28.80
2018-01-20T04:56:49.991Z,29.87
2018-01-20T04:58:51.057Z,30.90
2018-01-20T05:00:52.272Z,27.60
2018-01-20T05:02:53.291Z,28.43
2018-01-20T05:04:54.305Z,29.40
2018-01-20T05:06:55.339Z,31.37
2018-01-20T05:08:56.400Z,30.27
2018-01-20T05:10:57.563Z,26.87
2018-01-20T05:12:58.511Z,28.63
2018-01-20T05:15:03.615Z,28.03
2018-01-20T05:17:04.641Z,30.40
2018-01-20T05:19:05.600Z,29.30
2018-01-20T05:21:06.715Z,28.10
2018-01-20T05:23:08.564Z,30.70
2018-01-20T05:25:09.600Z,29.37
2018-01-20T05:27:10.612Z,30.37
2018-01-20T05:29:12.426Z,28.37
2018-01-20T05:31:13.444Z,28.37
2018-01-20T05:33:14.597Z,25.67
2018-01-20T05:35:15.639Z,27.07
2018-01-20T05:37:16.641Z,28.47
2018-01-20T05:39:17.720Z,23.00
2018-01-20T05:41:19.309Z,22.97
2018-01-20T05:43:22.455Z,23.30
2018-01-20T05:45:23.820Z,19.50
2018-01-20T05:47:24.952Z,22.83
2018-01-20T05:49:26.826Z,18.27
2018-01-20T05:51:27.810Z,21.03
2018-01-20T05:53:31.297Z,18.67
2018-01-20T05:55:38.867Z,20.63
2018-01-20T05:57:39.852Z,20.40
2018-01-20T05:59:40.919Z,18.87
2018-01-20T06:01:42.141Z,20.57
2018-01-20T06:03:43.205Z,19.80
2018-01-20T06:05:44.297Z,17.27
2018-01-20T06:07:46.345Z,18.87
2018-01-20T06:09:47.463Z,14.67
2018-01-20T06:11:48.506Z,16.10
2018-01-20T06:13:49.556Z,15.40
2018-01-20T06:15:51.190Z,14.87
2018-01-20T06:17:52.176Z,16.60
2018-01-20T06:19:53.282Z,17.33
2018-01-20T06:21:54.314Z,17.93
2018-01-20T06:23:56.188Z,18.40
2018-01-20T06:25:59.575Z,18.77
2018-01-20T06:28:00.795Z,20.50
2018-01-20T06:30:02.005Z,21.47
2018-01-20T06:32:04.637Z,22.77
2018-01-20T06:34:05.695Z,21.40
2018-01-20T06:36:08.169Z,21.50
2018-01-20T06:38:09.503Z,21.80
2018-01-20T06:40:11.026Z,21.80
2018-01-20T06:42:11.963Z,19.27
2018-01-20T06:44:13.042Z,21.77
2018-01-20T06:46:14.059Z,21.57
2018-01-20T06:48:15.205Z,23.63
2018-01-20T06:50:16.175Z,22.60
2018-01-20T06:52:17.337Z,24.20
2018-01-20T06:54:18.344Z,24.63
2018-01-20T06:56:19.583Z,22.23
2018-01-20T06:58:20.740Z,21.90
2018-01-20T07:00:22.589Z,22.17
2018-01-20T07:02:23.574Z,25.50
2018-01-20T07:04:24.576Z,22.70
2018-01-20T07:06:25.843Z,24.97
2018-01-20T07:08:27.004Z,23.80
2018-01-20T07:10:28.405Z,25.53
2018-01-20T07:12:30.476Z,24.57
2018-01-20T07:14:32.109Z,26.60
2018-01-20T07:16:33.123Z,25.43
2018-01-20T07:18:34.293Z,26.40
2018-01-20T07:20:36.485Z,24.90
2018-01-20T07:22:38.266Z,26.73
2018-01-20T07:24:39.516Z,25.23
2018-01-20T07:26:42.184Z,25.50
2018-01-20T07:28:44.075Z,27.43
2018-01-20T07:30:45.091Z,24.90
2018-01-20T07:32:46.181Z,25.17
2018-01-20T07:34:47.140Z,22.27
2018-01-20T07:36:48.292Z,22.90
2018-01-20T07:38:49.513Z,26.80
2018-01-20T07:40:50.644Z,25.10
2018-01-20T07:42:52.358Z,26.63
2018-01-20T07:44:53.401Z,27.57
2018-01-20T07:46:56.623Z,26.23
2018-01-20T07:48:57.544Z,25.00
2018-01-20T07:50:58.523Z,25.30
2018-01-20T07:52:59.461Z,27.07
2018-01-20T07:55:00.507Z,24.97
2018-01-20T07:57:01.592Z,25.27
2018-01-20T07:59:02.560Z,23.77
2018-01-20T08:01:03.665Z,25.33
2018-01-20T08:03:04.711Z,27.30
2018-01-20T08:05:05.672Z,25.37
2018-01-20T08:07:07.484Z,25.07
2018-01-20T08:09:08.486Z,27.67
2018-01-20T08:11:09.491Z,26.47
2018-01-20T08:13:10.468Z,22.73
2018-01-20T08:15:11.476Z,25.50
2018-01-20T08:17:12.498Z,28.70
2018-01-20T08:19:13.520Z,25.83
2018-01-20T08:21:14.531Z,24.27
2018-01-20T08:23:15.543Z,25.10
2018-01-20T08:25:16.592Z,26.57
2018-01-20T08:27:17.623Z,22.93
2018-01-20T08:29:18.588Z,24.93
2018-01-20T08:31:19.593Z,23.80
2018-01-20T08:33:20.612Z,24.90
2018-01-20T08:35:21.599Z,27.63
2018-01-20T08:37:22.670Z,23.80
2018-01-20T08:39:23.635Z,26.30
2018-01-20T08:41:24.645Z,25.70
2018-01-20T08:43:25.597Z,26.90
2018-01-20T08:45:26.540Z,27.07
2018-01-20T08:47:27.552Z,26.27
2018-01-20T08:49:28.526Z,27.80
2018-01-20T08:51:29.563Z,24.13
2018-01-20T08:53:30.519Z,26.83
2018-01-20T08:55:31.555Z,27.67
2018-01-20T08:57:32.558Z,22.40
2018-01-20T08:59:33.575Z,26.60
2018-01-20T09:01:34.607Z,26.97
2018-01-20T09:03:35.566Z,27.37
2018-01-20T09:05:36.644Z,28.57
2018-01-20T09:07:37.646Z,27.93
2018-01-20T09:09:38.682Z,26.03
2018-01-20T09:11:39.690Z,22.40
2018-01-20T09:13:40.660Z,23.10
2018-01-20T09:15:41.666Z,21.60
2018-01-20T09:17:43.399Z,20.07
2018-01-20T09:19:44.440Z,19.70
2018-01-20T09:21:45.474Z,17.40
2018-01-20T09:23:46.465Z,22.10
2018-01-20T09:25:47.448Z,21.43
2018-01-20T09:27:48.462Z,18.57
2018-01-20T09:29:49.482Z,19.90
2018-01-20T09:31:50.498Z,21.70
2018-01-20T09:33:51.528Z,21.07
2018-01-20T09:35:52.507Z,20.37
2018-01-20T09:37:53.517Z,21.70
2018-01-20T09:39:54.629Z,19.33
2018-01-20T09:41:55.689Z,20.23
2018-01-20T09:43:56.693Z,19.00
2018-01-20T09:46:02.735Z,20.57
2018-01-20T09:48:04.012Z,22.47
2018-01-20T09:50:05.079Z,22.00
2018-01-20T09:52:06.092Z,20.87
2018-01-20T09:54:08.005Z,18.80
2018-01-20T09:56:09.018Z,22.37
2018-01-20T09:58:10.746Z,20.20
2018-01-20T10:00:11.756Z,22.80
2018-01-20T10:02:12.727Z,23.10
2018-01-20T10:04:14.477Z,25.77
2018-01-20T10:06:15.527Z,21.80
2018-01-20T10:08:16.529Z,24.33
2018-01-20T10:10:17.556Z,23.80
2018-01-20T10:12:18.530Z,22.70
2018-01-20T10:14:19.661Z,20.17
2018-01-20T10:16:21.001Z,22.93
2018-01-20T10:18:21.996Z,26.00
2018-01-20T10:20:23.032Z,24.23
2018-01-20T10:22:24.148Z,25.70
2018-01-20T10:24:25.161Z,22.87
2018-01-20T10:26:26.175Z,24.13
2018-01-20T10:28:27.198Z,20.93
2018-01-20T10:30:28.204Z,24.60
2018-01-20T10:32:29.199Z,24.97
2018-01-20T10:34:30.768Z,26.50
2018-01-20T10:36:31.939Z,23.57
2018-01-20T10:38:33.101Z,22.30
2018-01-20T10:40:36.320Z,26.20
2018-01-20T10:42:37.612Z,23.70
2018-01-20T10:44:38.685Z,24.17
2018-01-20T10:46:39.720Z,25.03
2018-01-20T10:48:41.447Z,24.30
2018-01-20T10:50:43.119Z,21.43
2018-01-20T10:52:44.550Z,22.70
2018-01-20T10:54:47.072Z,24.63
2018-01-20T10:56:48.225Z,22.87
2018-01-20T10:58:49.721Z,17.20
2018-01-20T11:00:51.107Z,19.53
2018-01-20T11:02:52.828Z,23.97
2018-01-20T11:04:53.886Z,24.70
2018-01-20T11:06:55.604Z,23.10
2018-01-20T11:08:57.131Z,21.23
2018-01-20T11:10:58.162Z,22.27
2018-01-20T11:12:59.535Z,18.53
2018-01-20T11:15:01.045Z,19.33
2018-01-20T11:17:02.417Z,17.50
2018-01-20T11:19:03.554Z,15.13
2018-01-20T11:21:04.726Z,19.80
2018-01-20T11:23:05.829Z,15.80
2018-01-20T11:25:07.865Z,17.90
2018-01-20T11:27:09.503Z,15.40
2018-01-20T11:29:10.720Z,18.73
2018-01-20T11:31:12.239Z,17.90
2018-01-20T11:33:13.903Z,19.53
2018-01-20T11:35:14.899Z,21.60
2018-01-20T11:37:16.016Z,21.33
2018-01-20T11:39:17.098Z,19.03
2018-01-20T11:41:18.079Z,19.57
2018-01-20T11:43:20.611Z,20.37
2018-01-20T11:45:21.688Z,19.00
2018-01-20T11:47:22.708Z,16.57
2018-01-20T11:49:24.064Z,18.60
2018-01-20T11:51:25.559Z,19.47
2018-01-20T11:53:26.613Z,16.40
2018-01-20T11:55:27.590Z,15.97
2018-01-20T11:57:28.583Z,15.23
2018-01-20T11:59:29.636Z,13.70
2018-01-20T12:01:30.768Z,13.50
2018-01-20T12:03:31.794Z,16.60
2018-01-20T12:05:32.925Z,15.93
2018-01-20T12:07:35.700Z,15.00
2018-01-20T12:09:36.745Z,13.43
2018-01-20T12:11:37.951Z,13.27
2018-01-20T12:13:38.968Z,12.00
2018-01-20T12:15:40.362Z,10.53
2018-01-20T12:17:41.718Z,13.43
2018-01-20T12:19:43.439Z,13.47
2018-01-20T12:21:44.593Z,12.27
2018-01-20T12:23:45.704Z,12.17
2018-01-20T12:25:46.842Z,13.23
2018-01-20T12:27:48.319Z,13.20
2018-01-20T12:32:05.640Z,12.33
2018-01-20T12:34:07.202Z,13.53
2018-01-20T12:36:08.309Z,12.10
2018-01-20T12:38:09.659Z,13.37
2018-01-20T12:40:10.789Z,12.90
2018-01-20T12:42:12.065Z,11.97
2018-01-20T12:44:13.298Z,12.30
2018-01-20T12:46:14.458Z,11.00
2018-01-20T12:48:15.514Z,10.20
2018-01-20T12:50:16.515Z,11.77
2018-01-20T12:52:17.536Z,10.83
2018-01-20T12:54:18.535Z,10.03
2018-01-20T12:56:20.350Z,8.80
2018-01-20T12:58:21.363Z,9.77
2018-01-20T13:00:22.513Z,9.50
2018-01-20T13:02:23.551Z,8.50
2018-01-20T13:04:24.554Z,9.27
2018-01-20T13:06:26.412Z,10.00
2018-01-20T13:08:27.478Z,11.43
2018-01-20T13:10:28.571Z,8.50
2018-01-20T13:12:29.621Z,11.40
2018-01-20T13:14:31.288Z,9.20
2018-01-20T13:16:32.387Z,12.07
2018-01-20T13:18:33.583Z,10.80
2018-01-20T13:20:34.627Z,12.33
2018-01-20T13:22:35.701Z,11.53
2018-01-20T13:24:36.777Z,12.30
2018-01-20T13:26:37.880Z,11.90
2018-01-20T13:28:38.987Z,10.60
2018-01-20T13:30:39.988Z,12.40
2018-01-20T13:32:40.987Z,11.83
2018-01-20T13:34:42.079Z,11.30
2018-01-20T13:36:43.231Z,12.50
2018-01-20T13:38:44.313Z,12.20
2018-01-20T13:40:48.484Z,17.20
2018-01-20T13:43:14.027Z,15.90
2018-01-20T13:45:14.999Z,15.53
2018-01-20T13:47:16.051Z,13.73
2018-01-20T13:49:17.012Z,13.70
2018-01-20T13:51:36.570Z,13.90
2018-01-20T13:53:37.560Z,13.70
2018-01-20T13:55:38.593Z,14.50
2018-01-20T13:57:39.597Z,14.87
2018-01-20T13:59:40.596Z,13.00
2018-01-20T14:09:04.358Z,12.90
2018-01-20T14:11:05.482Z,14.00
2018-01-20T14:13:06.507Z,12.13
2018-01-20T14:15:07.491Z,14.37
2018-01-20T14:17:08.464Z,14.00
2018-01-20T14:19:09.423Z,14.27
2018-01-20T14:21:10.500Z,13.27
2018-01-20T14:25:39.007Z,11.17
2018-01-20T14:27:40.042Z,12.27
2018-01-20T14:30:13.800Z,13.07
2018-01-20T14:32:20.029Z,10.83
2018-01-20T14:34:20.978Z,11.53
2018-01-20T14:36:21.988Z,11.20
2018-01-20T14:38:26.781Z,10.93
2018-01-20T14:40:27.857Z,10.70
2018-01-20T14:42:28.837Z,10.20
2018-01-20T14:44:35.926Z,9.97
2018-01-20T14:46:38.546Z,10.47
2018-01-20T14:48:39.609Z,10.30
2018-01-20T14:51:07.017Z,10.13
2018-01-20T14:53:08.086Z,10.07
2018-01-20T14:55:09.076Z,9.40
2018-01-20T14:57:10.056Z,9.60
2018-01-20T14:59:11.030Z,22.20
2018-01-20T15:03:50.182Z,10.00
2018-01-20T15:05:51.172Z,11.27
2018-01-20T15:07:52.142Z,13.13
2018-01-20T15:10:01.080Z,15.90
2018-01-20T15:12:03.247Z,21.63
2018-01-20T15:14:04.321Z,22.70
2018-01-20T15:16:05.316Z,26.20
2018-01-20T15:18:06.283Z,22.70
2018-01-20T15:23:30.806Z,17.93
2018-01-20T15:25:45.218Z,18.43
2018-01-20T15:27:59.217Z,12.97
2018-01-20T15:30:00.175Z,13.20
2018-01-20T15:32:01.115Z,10.63
2018-01-20T15:34:02.134Z,10.60
2018-01-20T15:36:03.084Z,10.67
2018-01-20T15:38:04.088Z,9.90
2018-01-20T15:40:05.046Z,9.90
2018-01-20T15:42:06.715Z,10.50
2018-01-20T15:44:07.807Z,8.57
2018-01-20T15:46:08.769Z,9.37
2018-01-20T15:50:58.290Z,8.10
2018-01-20T15:52:59.334Z,6.90
2018-01-20T15:55:00.337Z,9.23
2018-01-20T15:57:07.417Z,9.97
2018-01-20T15:59:14.934Z,7.97
2018-01-20T16:01:20.023Z,7.57
2018-01-20T16:03:21.032Z,7.70
2018-01-20T16:05:22.042Z,7.37
2018-01-20T16:07:23.051Z,7.40
2018-01-20T16:09:24.039Z,7.40
2018-01-20T16:11:29.043Z,7.60
2018-01-20T16:13:30.048Z,7.27
2018-01-20T16:18:07.959Z,11.63
2018-01-20T16:20:08.904Z,15.87
2018-01-20T16:22:10.172Z,14.20
2018-01-20T16:26:29.031Z,15.07
2018-01-20T16:28:30.053Z,14.53
2018-01-20T16:30:31.016Z,21.20
2018-01-20T16:32:31.999Z,22.17
2018-01-20T16:34:32.960Z,20.73
2018-01-20T16:39:10.447Z,20.27
2018-01-20T16:41:11.420Z,19.50
2018-01-20T16:43:27.841Z,21.47
2018-01-20T16:45:28.847Z,12.50
2018-01-20T16:47:29.820Z,15.23
2018-01-20T16:49:31.104Z,14.67
2018-01-20T16:51:32.072Z,13.70
2018-01-20T16:53:57.463Z,11.27
2018-01-20T17:01:04.397Z,11.90
2018-01-20T17:03:05.354Z,13.17
2018-01-20T17:05:06.313Z,9.73
2018-01-20T17:07:07.276Z,12.27
2018-01-20T17:11:45.388Z,10.30
2018-01-20T17:13:46.332Z,10.23
2018-01-20T17:15:47.267Z,8.73
2018-01-20T17:17:48.211Z,7.33
2018-01-20T17:19:49.182Z,7.70
2018-01-20T17:21:50.176Z,6.67
2018-01-20T17:23:58.144Z,7.97
2018-01-20T17:25:59.107Z,8.27
2018-01-20T17:28:00.049Z,8.47
2018-01-20T17:30:01.064Z,8.63
2018-01-20T17:32:02.008Z,8.57
2018-01-20T17:36:58.159Z,7.47
2018-01-20T17:39:28.466Z,7.70
2018-01-20T17:43:58.696Z,9.27
2018-01-20T17:45:59.721Z,8.73
2018-01-20T17:50:21.565Z,8.00
2018-01-20T17:52:22.523Z,8.30
2018-01-20T17:54:23.515Z,7.53
2018-01-20T17:56:24.461Z,7.20
2018-01-20T17:58:29.199Z,6.67
2018-01-20T18:05:25.304Z,9.60
2018-01-20T18:07:27.576Z,9.83
2018-01-20T18:11:48.146Z,10.83
2018-01-20T18:13:49.071Z,14.60
2018-01-20T18:15:50.039Z,21.90
2018-01-20T18:17:50.994Z,15.20
2018-01-20T18:19:52.003Z,13.00
2018-01-20T18:21:59.243Z,10.03
2018-01-20T18:24:01.194Z,8.77
2018-01-20T18:26:02.184Z,10.10
2018-01-20T18:28:03.114Z,9.17
2018-01-20T18:32:27.802Z,10.43
2018-01-20T18:34:28.831Z,11.80
2018-01-20T18:36:30.603Z,11.10
2018-01-20T18:40:59.776Z,11.40
2018-01-20T18:43:18.932Z,11.60
2018-01-20T18:45:19.895Z,12.23
2018-01-20T18:47:20.867Z,12.27
2018-01-20T18:49:21.839Z,12.87
2018-01-20T18:51:22.795Z,15.07
2018-01-20T18:53:23.773Z,19.60
2018-01-20T18:57:52.993Z,17.00
2018-01-20T18:59:54.006Z,16.70
2018-01-20T19:04:14.147Z,15.00
2018-01-20T19:06:15.135Z,15.20
2018-01-20T19:08:16.159Z,18.83
2018-01-20T19:10:17.145Z,25.17
2018-01-20T19:12:18.084Z,24.33
2018-01-20T19:14:19.134Z,31.13
2018-01-20T19:16:20.098Z,20.87
2018-01-20T19:18:21.052Z,24.17
2018-01-20T19:20:26.995Z,23.50
2018-01-20T19:22:44.712Z,25.83
2018-01-20T19:24:46.065Z,18.80
2018-01-20T19:29:09.354Z,18.00
2018-01-20T19:31:10.301Z,25.70
2018-01-20T19:38:16.884Z,25.30
2018-01-20T19:45:23.567Z,18.20
2018-01-20T19:47:24.544Z,20.27
2018-01-20T19:52:02.200Z,20.90
2018-01-20T19:54:16.109Z,23.43
2018-01-20T19:56:17.131Z,24.27
2018-01-20T19:58:18.111Z,21.90
2018-01-20T20:00:19.061Z,20.40
2018-01-20T20:02:45.791Z,20.00
2018-01-20T20:07:23.638Z,22.17
2018-01-20T20:09:24.732Z,20.27
2018-01-20T20:11:40.873Z,19.50
2018-01-20T20:14:00.189Z,22.00
2018-01-20T20:18:30.231Z,20.70
2018-01-20T20:22:58.735Z,34.87
2018-01-20T20:24:59.804Z,27.20
2018-01-20T20:27:00.738Z,24.37
2018-01-20T20:29:01.720Z,25.13
2018-01-20T20:31:02.691Z,23.93
2018-01-20T20:33:03.623Z,26.87
2018-01-20T20:40:00.272Z,29.40
2018-01-20T20:42:15.434Z,26.40
2018-01-20T20:44:16.399Z,23.17
2018-01-20T20:48:45.469Z,21.33
2018-01-20T20:50:46.467Z,23.60
2018-01-20T20:52:47.491Z,25.00
2018-01-20T20:54:48.456Z,23.43
2018-01-20T20:57:13.773Z,25.33
2018-01-20T20:59:14.724Z,26.53
2018-01-20T21:03:43.923Z,37.70
2018-01-20T21:08:23.582Z,31.27
2018-01-20T21:12:52.168Z,29.73
2018-01-20T21:21:22.063Z,43.33
2018-01-20T21:23:24.024Z,47.43
2018-01-20T21:25:38.460Z,41.23
2018-01-20T21:27:39.408Z,41.70
2018-01-20T21:32:18.031Z,47.40
2018-01-20T21:34:18.999Z,33.50
2018-01-20T21:36:19.971Z,24.57
2018-01-20T21:38:20.985Z,25.03
2018-01-20T21:42:50.213Z,25.03
2018-01-20T21:47:18.963Z,21.83
2018-01-20T21:49:20.507Z,23.23
2018-01-20T21:53:57.883Z,22.00
2018-01-20T21:55:58.844Z,23.73
2018-01-20T21:57:59.831Z,22.60
2018-01-20T22:00:00.776Z,21.67
2018-01-20T22:02:01.785Z,22.80
2018-01-20T22:04:02.851Z,27.37
2018-01-20T22:08:49.777Z,26.70
2018-01-20T22:13:18.798Z,29.07
2018-01-20T22:15:20.285Z,26.70
2018-01-20T22:17:21.232Z,21.60
2018-01-20T22:19:22.204Z,15.27
2018-01-20T22:23:51.675Z,12.73
2018-01-20T22:28:20.718Z,13.53
2018-01-20T22:30:21.683Z,13.43
2018-01-20T22:34:51.431Z,11.40
2018-01-20T22:36:52.908Z,12.00
2018-01-20T22:38:53.884Z,13.17
2018-01-20T22:40:54.811Z,11.20
2018-01-20T22:43:20.873Z,13.07
2018-01-20T22:45:21.871Z,12.60
2018-01-20T22:49:50.210Z,14.67
2018-01-20T22:51:51.155Z,14.43
2018-01-20T22:53:52.140Z,14.30
2018-01-20T22:55:53.100Z,14.70
2018-01-20T23:02:50.301Z,13.97
2018-01-20T23:04:51.249Z,14.70
2018-01-20T23:06:52.206Z,13.87
2018-01-20T23:08:53.921Z,12.07
2018-01-20T23:10:54.947Z,13.37
2018-01-20T23:12:55.899Z,14.40
2018-01-20T23:14:56.891Z,17.30
2018-01-20T23:16:57.894Z,13.97
2018-01-20T23:18:58.849Z,15.30
2018-01-20T23:20:59.867Z,15.13
2018-01-20T23:23:01.203Z,16.93
2018-01-20T23:25:03.217Z,15.10
2018-01-20T23:27:20.767Z,16.03
2018-01-20T23:29:21.803Z,15.60
2018-01-20T23:33:50.458Z,16.00
2018-01-20T23:35:51.443Z,16.37
2018-01-20T23:37:52.485Z,14.30
2018-01-20T23:39:53.535Z,15.10
2018-01-20T23:42:19.832Z,15.07
2018-01-20T23:46:48.580Z,15.90
2018-01-20T23:48:49.572Z,16.30
2018-01-20T23:50:50.664Z,15.87
2018-01-20T23:52:51.767Z,16.67
2018-01-20T23:54:52.716Z,15.53
2018-01-20T23:59:32.098Z,15.90
